Time;durP1;ratioP1;P1;durP2;ratioP2;P2;SDS_P1;SDS_P2;PMS_P1;PMS_P2;Temp;Humidity;BMP_temperature;BMP_pressure;BME280_temperature;BME280_humidity;BME280_pressure;Samples;Min_cycle;Max_cycle;Signal;HPM_P1;HPM_P2
2023/06/17 00:00:07;;;;;;;;;;;24.90;49.80;;;;;;5105358;27;42968;-79
2023/06/17 00:02:34;;;;;;;;;;;24.90;49.30;;;;;;5086049;27;43194;-75
2023/06/17 00:04:59;;;;;;;;;;;24.90;49.60;;;;;;5105247;27;43308;-75
2023/06/17 00:07:25;;;;;;;;;;;24.90;49.10;;;;;;5104782;27;42972;-75
2023/06/17 00:09:50;;;;;;;;;;;24.90;49.60;;;;;;5100757;27;43050;-75
2023/06/17 00:12:16;;;;;;;;;;;24.90;49.70;;;;;;5100994;27;43078;-75
2023/06/17 00:14:42;;;;;;;;;;;24.80;49.90;;;;;;5105094;27;42935;-76
2023/06/17 00:17:11;;;;;;;;;;;24.70;49.70;;;;;;5086470;27;43067;-74
2023/06/17 00:19:37;;;;;;;;;;;24.70;49.70;;;;;;5088264;27;43486;-74
2023/06/17 00:22:03;;;;;;;;;;;24.70;49.80;;;;;;5104785;27;43079;-77
2023/06/17 00:24:29;;;;;;;;;;;24.70;50.30;;;;;;5104710;27;43849;-75
2023/06/17 00:26:55;;;;;;;;;;;24.70;49.80;;;;;;5104249;27;43046;-74
2023/06/17 00:29:20;;;;;;;;;;;24.70;49.70;;;;;;5103805;27;42924;-75
2023/06/17 00:31:46;;;;;;;;;;;24.80;49.50;;;;;;5097576;27;42939;-74
2023/06/17 00:34:12;;;;;;;;;;;24.80;49.20;;;;;;5100634;27;42909;-74
2023/06/17 00:36:37;;;;;;;;;;;24.80;49.20;;;;;;5102851;27;43124;-75
2023/06/17 00:39:03;;;;;;;;;;;24.80;49.90;;;;;;5104397;27;43501;-74
2023/06/17 00:41:28;;;;;;;;;;;24.80;50.00;;;;;;5104597;27;43163;-80
2023/06/17 00:43:55;;;;;;;;;;;24.70;49.90;;;;;;5099222;27;43647;-74
2023/06/17 00:46:32;;;;;;;;;;;24.70;50.00;;;;;;5083031;27;42961;-74
2023/06/17 00:48:57;;;;;;;;;;;24.70;50.00;;;;;;5094316;27;43196;-77
2023/06/17 00:51:23;;;;;;;;;;;24.70;49.30;;;;;;5105468;27;43054;-74
2023/06/17 00:53:49;;;;;;;;;;;24.70;49.30;;;;;;5105431;27;43067;-74
2023/06/17 00:56:17;;;;;;;;;;;24.70;49.30;;;;;;5104790;27;42968;-79
2023/06/17 00:58:43;;;;;;;;;;;24.70;49.30;;;;;;5107850;27;43245;-75
2023/06/17 01:01:09;;;;;;;;;;;24.70;49.70;;;;;;5108242;27;42979;-80
2023/06/17 01:03:34;;;;;;;;;;;24.70;49.80;;;;;;5108169;27;43092;-75
2023/06/17 01:06:03;;;;;;;;;;;24.70;49.40;;;;;;5108625;27;43100;-74
2023/06/17 01:08:40;;;;;;;;;;;24.70;49.40;;;;;;5106802;27;42946;-75
2023/06/17 01:11:11;;;;;;;;;;;24.70;49.90;;;;;;5108362;27;42875;-75
2023/06/17 01:13:37;;;;;;;;;;;24.70;49.80;;;;;;5107829;27;42818;-80
2023/06/17 01:16:04;;;;;;;;;;;24.70;49.70;;;;;;5108815;27;42857;-74
2023/06/17 01:18:31;;;;;;;;;;;24.70;49.70;;;;;;5107562;27;43740;-75
2023/06/17 01:20:56;;;;;;;;;;;24.70;49.30;;;;;;5108733;27;42881;-76
2023/06/17 01:23:26;;;;;;;;;;;24.70;49.70;;;;;;5107891;27;43355;-74
2023/06/17 01:25:52;;;;;;;;;;;24.70;49.20;;;;;;5108496;27;42892;-75
2023/06/17 01:28:20;;;;;;;;;;;24.60;49.60;;;;;;5108350;27;42970;-78
2023/06/17 01:30:54;;;;;;;;;;;24.70;49.60;;;;;;5108480;27;42905;-75
2023/06/17 01:33:20;;;;;;;;;;;24.70;49.60;;;;;;5102601;27;43472;-75
2023/06/17 01:35:53;;;;;;;;;;;24.60;49.40;;;;;;5088425;27;42793;-74
2023/06/17 01:38:34;;;;;;;;;;;24.60;48.90;;;;;;5107661;27;43010;-76
2023/06/17 01:41:02;;;;;;;;;;;24.60;48.90;;;;;;5088454;27;42962;-80
2023/06/17 01:43:29;;;;;;;;;;;24.60;48.90;;;;;;5107574;27;42980;-75
2023/06/17 01:45:55;;;;;;;;;;;24.60;49.40;;;;;;5107345;27;42866;-75
2023/06/17 01:48:21;;;;;;;;;;;24.60;49.50;;;;;;5107629;27;43470;-77
2023/06/17 01:50:47;;;;;;;;;;;24.60;49.30;;;;;;5107922;27;42832;-76
2023/06/17 01:53:12;;;;;;;;;;;24.60;48.90;;;;;;5106826;27;42896;-76
2023/06/17 01:55:38;;;;;;;;;;;24.60;48.90;;;;;;5107493;27;42878;-77
2023/06/17 01:58:03;;;;;;;;;;;24.70;49.50;;;;;;5107496;27;43143;-75
2023/06/17 02:00:29;;;;;;;;;;;24.60;49.40;;;;;;5106633;27;42864;-75
2023/06/17 02:02:55;;;;;;;;;;;24.60;48.90;;;;;;5107748;27;42967;-75
2023/06/17 02:05:20;;;;;;;;;;;24.60;49.40;;;;;;5107040;27;43155;-75
2023/06/17 02:07:47;;;;;;;;;;;24.60;49.00;;;;;;5105143;27;43347;-75
2023/06/17 02:10:13;;;;;;;;;;;24.60;48.90;;;;;;5106545;27;43091;-76
2023/06/17 02:12:38;;;;;;;;;;;24.60;48.90;;;;;;5106614;27;42971;-78
2023/06/17 02:15:04;;;;;;;;;;;24.60;49.40;;;;;;5106510;27;43040;-74
2023/06/17 02:17:30;;;;;;;;;;;24.60;48.80;;;;;;5106808;27;42983;-74
2023/06/17 02:19:55;;;;;;;;;;;24.60;48.70;;;;;;5106871;27;42917;-75
2023/06/17 02:22:21;;;;;;;;;;;24.60;48.50;;;;;;5095094;27;42833;-76
2023/06/17 02:24:46;;;;;;;;;;;24.60;48.50;;;;;;5067537;28;42923;-76
2023/06/17 02:27:12;;;;;;;;;;;24.60;48.50;;;;;;5086673;28;43268;-80
2023/06/17 02:29:37;;;;;;;;;;;24.60;48.50;;;;;;5085803;28;42920;-74
2023/06/17 02:32:03;;;;;;;;;;;24.50;48.50;;;;;;5085399;28;44042;-80
2023/06/17 02:34:29;;;;;;;;;;;24.60;48.90;;;;;;5085966;28;42926;-75
2023/06/17 02:36:56;;;;;;;;;;;24.50;48.90;;;;;;5085251;28;43653;-79
2023/06/17 02:39:22;;;;;;;;;;;24.60;49.10;;;;;;5085455;28;43211;-74
2023/06/17 02:41:47;;;;;;;;;;;24.50;49.00;;;;;;5086075;28;43559;-75
2023/06/17 02:44:13;;;;;;;;;;;24.50;48.40;;;;;;5091352;27;43171;-81
2023/06/17 02:46:38;;;;;;;;;;;24.60;48.80;;;;;;5106077;27;42848;-75
2023/06/17 02:49:04;;;;;;;;;;;24.60;48.70;;;;;;5107305;27;43031;-77
2023/06/17 02:51:29;;;;;;;;;;;24.50;48.50;;;;;;5105841;27;42836;-77
2023/06/17 02:53:55;;;;;;;;;;;24.50;48.30;;;;;;5106251;27;42844;-76
2023/06/17 02:56:21;;;;;;;;;;;24.50;47.60;;;;;;5106359;27;43619;-75
2023/06/17 02:58:46;;;;;;;;;;;24.40;47.90;;;;;;5104213;27;43078;-81
2023/06/17 03:01:12;;;;;;;;;;;24.50;47.10;;;;;;5106516;27;43249;-77
2023/06/17 03:03:41;;;;;;;;;;;24.50;46.90;;;;;;5105479;27;42931;-76
2023/06/17 03:06:07;;;;;;;;;;;24.50;47.50;;;;;;5104180;27;43026;-75
2023/06/17 03:08:33;;;;;;;;;;;24.90;47.20;;;;;;5105573;27;43028;-78
2023/06/17 03:11:02;;;;;;;;;;;24.40;47.40;;;;;;5104564;27;43233;-76
2023/06/17 03:13:28;;;;;;;;;;;24.40;47.10;;;;;;5106037;27;42836;-80
2023/06/17 03:15:54;;;;;;;;;;;24.40;47.80;;;;;;5105336;27;42907;-76
2023/06/17 03:18:22;;;;;;;;;;;24.40;47.50;;;;;;5106404;27;42896;-76
2023/06/17 03:20:49;;;;;;;;;;;24.40;47.50;;;;;;5106145;27;43537;-78
2023/06/17 03:23:15;;;;;;;;;;;24.40;47.90;;;;;;5106168;27;42866;-75
2023/06/17 03:25:41;;;;;;;;;;;24.40;48.10;;;;;;5105168;27;42845;-76
2023/06/17 03:28:06;;;;;;;;;;;24.30;47.50;;;;;;5105870;27;42902;-81
2023/06/17 03:30:32;;;;;;;;;;;24.40;47.60;;;;;;5086261;27;43832;-75
2023/06/17 03:32:58;;;;;;;;;;;24.40;48.10;;;;;;5104672;27;42907;-81
2023/06/17 03:35:24;;;;;;;;;;;24.40;47.60;;;;;;5105197;27;43528;-80
2023/06/17 03:37:50;;;;;;;;;;;24.30;47.50;;;;;;5105480;27;43009;-76
2023/06/17 03:40:15;;;;;;;;;;;24.40;48.10;;;;;;5105718;27;42885;-76
2023/06/17 03:42:41;;;;;;;;;;;24.40;47.40;;;;;;5105685;27;43411;-75
2023/06/17 03:45:07;;;;;;;;;;;24.40;47.40;;;;;;5105320;27;42932;-75
2023/06/17 03:47:32;;;;;;;;;;;24.40;47.80;;;;;;5105384;27;42933;-76
2023/06/17 03:49:58;;;;;;;;;;;24.40;47.70;;;;;;5104826;27;43789;-76
2023/06/17 03:52:23;;;;;;;;;;;24.30;47.70;;;;;;5105348;27;42959;-77
2023/06/17 03:54:49;;;;;;;;;;;24.30;47.20;;;;;;5104999;27;43585;-76
2023/06/17 03:57:15;;;;;;;;;;;24.40;47.30;;;;;;5105545;27;42942;-77
2023/06/17 03:59:41;;;;;;;;;;;24.30;47.70;;;;;;5085949;27;44151;-76
2023/06/17 04:02:07;;;;;;;;;;;24.40;47.80;;;;;;5103108;27;43003;-76
2023/06/17 04:04:34;;;;;;;;;;;24.40;47.00;;;;;;5105335;27;43654;-75
2023/06/17 04:07:02;;;;;;;;;;;24.30;46.90;;;;;;5104972;27;43142;-76
2023/06/17 04:09:28;;;;;;;;;;;24.30;47.00;;;;;;5102544;27;42921;-75
2023/06/17 04:11:53;;;;;;;;;;;24.30;47.00;;;;;;5104144;27;42928;-75
2023/06/17 04:14:19;;;;;;;;;;;24.30;47.60;;;;;;5104448;27;43015;-75
2023/06/17 04:16:44;;;;;;;;;;;24.30;47.30;;;;;;5103837;27;42829;-76
2023/06/17 04:19:13;;;;;;;;;;;24.30;47.30;;;;;;5105229;27;43898;-76
2023/06/17 04:21:39;;;;;;;;;;;24.30;47.20;;;;;;5104632;27;42928;-81
2023/06/17 04:24:05;;;;;;;;;;;24.30;47.20;;;;;;5104495;27;42925;-76
2023/06/17 04:26:30;;;;;;;;;;;24.30;47.60;;;;;;5104132;27;43046;-76
2023/06/17 04:28:56;;;;;;;;;;;24.30;47.50;;;;;;5104354;27;43570;-82
2023/06/17 04:31:21;;;;;;;;;;;24.30;47.40;;;;;;5105431;27;42903;-77
2023/06/17 04:33:47;;;;;;;;;;;24.30;46.90;;;;;;5108282;27;44099;-76
2023/06/17 04:36:14;;;;;;;;;;;24.30;47.00;;;;;;5108300;27;43022;-75
2023/06/17 04:38:42;;;;;;;;;;;24.30;47.50;;;;;;5107710;27;43384;-75
2023/06/17 04:41:08;;;;;;;;;;;24.30;47.10;;;;;;5107582;27;42979;-76
2023/06/17 04:43:36;;;;;;;;;;;24.30;47.00;;;;;;5107937;27;43433;-76
2023/06/17 04:46:02;;;;;;;;;;;24.30;47.10;;;;;;5108679;27;43034;-84
2023/06/17 04:48:28;;;;;;;;;;;24.30;47.50;;;;;;5108001;27;42871;-75
2023/06/17 04:50:57;;;;;;;;;;;24.30;47.10;;;;;;5108655;27;42916;-77
2023/06/17 04:53:26;;;;;;;;;;;24.30;47.00;;;;;;5106988;27;43007;-76
2023/06/17 04:55:52;;;;;;;;;;;24.40;46.90;;;;;;5107745;27;43003;-77
2023/06/17 04:58:17;;;;;;;;;;;24.40;47.40;;;;;;5107654;27;43598;-75
2023/06/17 05:00:43;;;;;;;;;;;24.40;46.80;;;;;;5107888;27;42992;-75
2023/06/17 05:03:09;;;;;;;;;;;24.40;46.80;;;;;;5108548;27;42950;-75
2023/06/17 05:05:34;;;;;;;;;;;24.40;47.30;;;;;;5108138;27;42935;-82
2023/06/17 05:08:00;;;;;;;;;;;24.40;46.70;;;;;;5107615;27;43320;-75
2023/06/17 05:10:25;;;;;;;;;;;24.40;47.20;;;;;;5108080;27;42858;-79
2023/06/17 05:12:51;;;;;;;;;;;24.30;46.60;;;;;;5107329;27;44096;-80
2023/06/17 05:15:16;;;;;;;;;;;24.40;46.60;;;;;;5107736;27;42963;-81
2023/06/17 05:17:42;;;;;;;;;;;24.40;47.10;;;;;;5106247;27;42965;-76
2023/06/17 05:20:08;;;;;;;;;;;24.30;46.50;;;;;;5106916;27;42751;-76
2023/06/17 05:22:34;;;;;;;;;;;24.40;46.60;;;;;;5106912;27;43578;-75
2023/06/17 05:25:00;;;;;;;;;;;24.40;46.50;;;;;;5107647;27;42944;-83
2023/06/17 05:27:25;;;;;;;;;;;24.40;46.50;;;;;;5103309;27;43871;-76
2023/06/17 05:29:51;;;;;;;;;;;24.40;46.60;;;;;;5107057;27;42961;-75
2023/06/17 05:32:16;;;;;;;;;;;24.40;46.90;;;;;;5107436;27;43898;-82
2023/06/17 05:34:42;;;;;;;;;;;24.40;47.40;;;;;;5107567;27;43211;-75
2023/06/17 05:37:08;;;;;;;;;;;24.40;47.00;;;;;;5107448;27;42975;-76
2023/06/17 05:39:33;;;;;;;;;;;24.40;47.50;;;;;;5105232;27;43003;-75
2023/06/17 05:41:59;;;;;;;;;;;24.40;47.10;;;;;;5104272;27;43027;-78
2023/06/17 05:44:24;;;;;;;;;;;24.40;47.00;;;;;;5087777;27;43000;-76
2023/06/17 05:46:50;;;;;;;;;;;24.40;47.00;;;;;;5107102;27;42971;-84
2023/06/17 05:49:16;;;;;;;;;;;24.50;47.60;;;;;;5105445;27;43065;-78
2023/06/17 05:51:41;;;;;;;;;;;24.50;47.40;;;;;;5087596;27;44463;-76
2023/06/17 05:54:07;;;;;;;;;;;24.50;47.50;;;;;;5103585;27;43763;-75
2023/06/17 05:56:32;;;;;;;;;;;24.50;47.40;;;;;;5105095;27;43739;-74
2023/06/17 05:58:58;;;;;;;;;;;24.50;47.40;;;;;;5107303;27;43066;-75
2023/06/17 06:01:24;;;;;;;;;;;24.50;47.00;;;;;;5104121;27;43101;-75
2023/06/17 06:03:49;;;;;;;;;;;24.50;46.90;;;;;;5105803;27;43025;-75
2023/06/17 06:06:15;;;;;;;;;;;24.40;46.90;;;;;;5104881;27;42942;-86
2023/06/17 06:08:41;;;;;;;;;;;24.50;47.00;;;;;;5106004;27;43164;-75
2023/06/17 06:11:07;;;;;;;;;;;24.50;47.10;;;;;;5101756;27;42996;-87
2023/06/17 06:13:32;;;;;;;;;;;24.50;47.60;;;;;;5106332;27;43182;-76
2023/06/17 06:15:58;;;;;;;;;;;24.50;47.20;;;;;;5106588;27;42987;-76
2023/06/17 06:18:23;;;;;;;;;;;24.60;47.80;;;;;;5106696;27;42995;-82
2023/06/17 06:20:49;;;;;;;;;;;24.60;47.10;;;;;;5106727;27;44012;-84
2023/06/17 06:23:14;;;;;;;;;;;24.60;47.70;;;;;;5103402;27;43882;-76
2023/06/17 06:25:41;;;;;;;;;;;24.60;47.80;;;;;;5106386;27;43327;-81
2023/06/17 06:28:07;;;;;;;;;;;24.60;47.50;;;;;;5107554;27;42942;-87
2023/06/17 06:30:32;;;;;;;;;;;24.60;47.80;;;;;;5088629;27;45675;-80
2023/06/17 06:32:58;;;;;;;;;;;24.60;48.30;;;;;;5106380;27;43030;-76
2023/06/17 06:35:24;;;;;;;;;;;24.60;48.60;;;;;;5099629;27;43463;-75
2023/06/17 06:37:50;;;;;;;;;;;24.60;48.10;;;;;;5085065;27;43102;-80
2023/06/17 06:40:15;;;;;;;;;;;24.70;48.80;;;;;;5085870;28;42960;-78
2023/06/17 06:42:41;;;;;;;;;;;24.70;48.70;;;;;;5089540;27;43208;-79
2023/06/17 06:45:06;;;;;;;;;;;24.70;48.70;;;;;;5105202;27;43051;-80
2023/06/17 06:47:32;;;;;;;;;;;24.70;48.80;;;;;;5106581;27;42955;-79
2023/06/17 06:49:58;;;;;;;;;;;24.70;48.40;;;;;;5106282;27;42951;-80
2023/06/17 06:52:23;;;;;;;;;;;24.70;48.40;;;;;;5105178;27;43060;-79
2023/06/17 06:54:48;;;;;;;;;;;24.70;48.40;;;;;;5104638;27;43475;-78
2023/06/17 06:57:14;;;;;;;;;;;24.70;48.90;;;;;;5106119;27;43152;-78
2023/06/17 06:59:40;;;;;;;;;;;24.70;48.90;;;;;;5105452;27;42970;-79
2023/06/17 07:02:05;;;;;;;;;;;24.70;49.00;;;;;;5105671;27;42925;-77
2023/06/17 07:04:31;;;;;;;;;;;24.70;49.10;;;;;;5104813;27;42956;-77
2023/06/17 07:06:56;;;;;;;;;;;24.80;48.70;;;;;;5105481;27;43107;-75
2023/06/17 07:09:22;;;;;;;;;;;24.80;48.80;;;;;;5104359;27;42932;-76
2023/06/17 07:11:47;;;;;;;;;;;24.70;48.80;;;;;;5087751;27;43017;-77
2023/06/17 07:14:13;;;;;;;;;;;24.70;48.90;;;;;;5105779;27;43945;-80
2023/06/17 07:16:38;;;;;;;;;;;24.80;49.00;;;;;;5105295;27;43060;-75
2023/06/17 07:19:04;;;;;;;;;;;24.80;49.00;;;;;;5102673;27;43380;-78
2023/06/17 07:21:29;;;;;;;;;;;24.80;48.90;;;;;;5105232;27;42999;-76
2023/06/17 07:23:55;;;;;;;;;;;24.80;49.10;;;;;;5103983;27;44803;-75
2023/06/17 07:26:20;;;;;;;;;;;24.80;49.60;;;;;;5086901;27;43044;-75
2023/06/17 07:28:46;;;;;;;;;;;24.80;49.10;;;;;;5102905;27;43366;-79
2023/06/17 07:31:12;;;;;;;;;;;24.80;49.00;;;;;;5095356;27;43265;-81
2023/06/17 07:33:39;;;;;;;;;;;24.80;49.10;;;;;;5098885;27;43011;-76
2023/06/17 07:36:04;;;;;;;;;;;24.80;49.00;;;;;;5099828;27;42987;-76
2023/06/17 07:38:32;;;;;;;;;;;24.80;49.00;;;;;;5104093;27;43440;-76
2023/06/17 07:40:58;;;;;;;;;;;24.80;49.00;;;;;;5102327;27;43153;-77
2023/06/17 07:43:24;;;;;;;;;;;24.80;49.50;;;;;;5100585;27;43678;-75
2023/06/17 07:45:50;;;;;;;;;;;24.80;49.50;;;;;;5097188;27;43114;-75
2023/06/17 07:48:16;;;;;;;;;;;24.80;49.00;;;;;;5100088;27;43017;-76
2023/06/17 07:50:42;;;;;;;;;;;24.80;49.60;;;;;;5105024;27;42948;-75
2023/06/17 07:53:07;;;;;;;;;;;24.90;49.30;;;;;;5103914;27;42975;-81
2023/06/17 07:55:33;;;;;;;;;;;24.80;49.30;;;;;;5105070;27;43240;-75
2023/06/17 07:57:59;;;;;;;;;;;24.80;49.60;;;;;;5082862;27;43024;-81
2023/06/17 08:00:26;;;;;;;;;;;24.80;49.60;;;;;;5103561;27;42894;-76
2023/06/17 08:02:51;;;;;;;;;;;24.80;49.80;;;;;;5101779;27;43555;-79
2023/06/17 08:05:17;;;;;;;;;;;24.90;50.10;;;;;;5104919;27;42959;-75
2023/06/17 08:07:42;;;;;;;;;;;24.90;50.10;;;;;;5104655;27;43570;-81
2023/06/17 08:10:08;;;;;;;;;;;24.80;50.20;;;;;;5105532;27;43070;-77
2023/06/17 08:12:34;;;;;;;;;;;24.90;50.20;;;;;;5104837;27;43062;-79
2023/06/17 08:14:59;;;;;;;;;;;24.90;50.40;;;;;;5104961;27;42896;-76
2023/06/17 08:17:25;;;;;;;;;;;24.90;50.90;;;;;;5102072;27;43299;-76
2023/06/17 08:19:50;;;;;;;;;;;24.90;50.40;;;;;;5103234;27;43550;-75
2023/06/17 08:22:16;;;;;;;;;;;24.90;50.40;;;;;;5104851;27;42979;-75
2023/06/17 08:24:41;;;;;;;;;;;24.90;51.00;;;;;;5104519;27;42920;-76
2023/06/17 08:27:09;;;;;;;;;;;24.90;50.50;;;;;;5104531;27;42913;-76
2023/06/17 08:29:35;;;;;;;;;;;24.90;51.00;;;;;;5085090;27;43234;-75
2023/06/17 08:32:01;;;;;;;;;;;24.90;50.50;;;;;;5104412;27;43572;-75
2023/06/17 08:34:30;;;;;;;;;;;28.60;53.00;;;;;;5103887;27;42983;-76
2023/06/17 08:36:56;;;;;;;;;;;24.90;50.50;;;;;;5104339;27;43228;-77
2023/06/17 08:39:21;;;;;;;;;;;24.90;50.10;;;;;;5102316;27;42947;-76
2023/06/17 08:41:47;;;;;;;;;;;24.90;49.40;;;;;;5104132;27;43120;-75
2023/06/17 08:44:13;;;;;;;;;;;24.90;49.80;;;;;;5102048;27;43023;-75
2023/06/17 08:46:39;;;;;;;;;;;24.90;49.30;;;;;;5104075;27;43064;-83
2023/06/17 08:49:07;;;;;;;;;;;24.90;49.40;;;;;;5101591;27;42905;-76
2023/06/17 08:51:33;;;;;;;;;;;24.90;49.30;;;;;;5104946;27;42843;-77
2023/06/17 08:54:00;;;;;;;;;;;24.90;48.90;;;;;;5104776;27;42932;-78
2023/06/17 08:56:25;;;;;;;;;;;24.90;49.40;;;;;;5100073;27;44585;-76
2023/06/17 08:58:53;;;;;;;;;;;24.90;49.00;;;;;;5083519;27;43029;-77
2023/06/17 09:01:19;;;;;;;;;;;24.90;49.10;;;;;;5084634;28;42982;-75
2023/06/17 09:03:45;;;;;;;;;;;24.90;49.10;;;;;;5084471;28;42946;-75
2023/06/17 09:06:29;;;;;;;;;;;25.00;49.70;;;;;;5084900;28;43317;-78
2023/06/17 09:08:56;;;;;;;;;;;24.90;49.70;;;;;;5084140;28;42882;-78
2023/06/17 09:11:31;;;;;;;;;;;24.90;49.40;;;;;;5084101;28;42941;-76
2023/06/17 09:13:57;;;;;;;;;;;24.90;49.90;;;;;;5084227;28;42990;-76
2023/06/17 09:16:27;;;;;;;;;;;24.90;50.00;;;;;;5083933;28;43043;-75
2023/06/17 09:18:54;;;;;;;;;;;24.90;49.60;;;;;;5086781;28;43046;-76
2023/06/17 09:21:20;;;;;;;;;;;25.00;49.70;;;;;;5087613;28;43012;-75
2023/06/17 09:23:56;;;;;;;;;;;25.00;49.80;;;;;;5087556;28;43048;-79
2023/06/17 09:26:22;;;;;;;;;;;24.90;50.20;;;;;;5087154;28;43538;-75
2023/06/17 09:28:48;;;;;;;;;;;25.00;50.30;;;;;;5107045;27;42950;-74
2023/06/17 09:31:13;;;;;;;;;;;25.00;50.30;;;;;;5107614;27;42952;-85
2023/06/17 09:33:43;;;;;;;;;;;25.00;50.40;;;;;;5108018;27;42908;-75
2023/06/17 09:36:08;;;;;;;;;;;25.00;50.30;;;;;;5108165;27;42881;-75
2023/06/17 09:38:38;;;;;;;;;;;25.00;49.90;;;;;;5090063;27;43172;-75
2023/06/17 09:41:03;;;;;;;;;;;25.00;49.90;;;;;;5108229;27;43383;-81
2023/06/17 09:43:29;;;;;;;;;;;25.00;49.90;;;;;;5107947;27;42893;-75
2023/06/17 09:45:59;;;;;;;;;;;25.00;49.90;;;;;;5089880;27;45424;-76
2023/06/17 09:48:31;;;;;;;;;;;25.00;49.90;;;;;;5089315;27;42965;-78
2023/06/17 09:50:57;;;;;;;;;;;25.00;50.00;;;;;;5080951;27;45129;-76
2023/06/17 09:53:29;;;;;;;;;;;25.00;50.00;;;;;;5084399;28;43236;-77
2023/06/17 09:55:57;;;;;;;;;;;25.00;50.10;;;;;;5086984;28;43962;-79
2023/06/17 09:58:26;;;;;;;;;;;25.00;50.10;;;;;;5096687;27;42963;-76
2023/06/17 10:00:52;;;;;;;;;;;25.00;50.60;;;;;;5107062;27;43117;-80
2023/06/17 10:03:18;;;;;;;;;;;25.00;50.60;;;;;;5105892;27;43053;-84
2023/06/17 10:05:53;;;;;;;;;;;25.00;50.60;;;;;;5106645;27;43500;-76
2023/06/17 10:08:19;;;;;;;;;;;25.00;50.20;;;;;;5106955;27;42834;-76
2023/06/17 10:10:46;;;;;;;;;;;25.00;50.20;;;;;;5106408;27;43109;-79
2023/06/17 10:13:12;;;;;;;;;;;25.10;50.80;;;;;;5106416;27;43006;-77
2023/06/17 10:15:38;;;;;;;;;;;25.00;50.30;;;;;;5107315;27;42933;-78
2023/06/17 10:18:05;;;;;;;;;;;25.10;50.40;;;;;;5106023;27;42987;-76
2023/06/17 10:20:32;;;;;;;;;;;25.10;50.90;;;;;;5106260;27;42872;-78
2023/06/17 10:22:59;;;;;;;;;;;25.10;50.90;;;;;;5106693;27;43127;-76
2023/06/17 10:25:25;;;;;;;;;;;25.10;51.00;;;;;;5087930;27;45666;-75
2023/06/17 10:27:51;;;;;;;;;;;25.10;51.10;;;;;;5106591;27;43394;-76
2023/06/17 10:30:26;;;;;;;;;;;25.10;50.60;;;;;;5106381;27;42900;-77
2023/06/17 10:32:54;;;;;;;;;;;25.10;50.60;;;;;;5106567;27;43036;-77
2023/06/17 10:35:19;;;;;;;;;;;25.10;50.60;;;;;;5106053;27;43118;-82
2023/06/17 10:37:47;;;;;;;;;;;25.10;50.60;;;;;;5106297;27;42965;-78
2023/06/17 10:40:19;;;;;;;;;;;25.10;51.20;;;;;;5106149;27;42976;-76
2023/06/17 10:43:14;;;;;;;;;;;25.20;51.30;;;;;;5105460;27;42963;-74
2023/06/17 10:45:49;;;;;;;;;;;25.20;50.90;;;;;;5106105;27;44007;-74
2023/06/17 10:48:18;;;;;;;;;;;25.20;51.40;;;;;;5106081;27;42903;-75
2023/06/17 10:50:46;;;;;;;;;;;25.20;51.50;;;;;;5105982;27;42885;-78
2023/06/17 10:53:15;;;;;;;;;;;25.20;51.10;;;;;;5105524;27;43053;-74
2023/06/17 10:55:41;;;;;;;;;;;25.20;51.20;;;;;;5106558;27;44854;-75
2023/06/17 10:58:07;;;;;;;;;;;25.20;51.20;;;;;;5105947;27;43046;-73
2023/06/17 11:00:32;;;;;;;;;;;25.20;51.80;;;;;;5105348;27;43257;-83
2023/06/17 11:02:58;;;;;;;;;;;25.20;52.30;;;;;;5105708;27;42983;-76
2023/06/17 11:05:24;;;;;;;;;;;25.30;52.00;;;;;;5104921;27;43525;-74
2023/06/17 11:07:49;;;;;;;;;;;25.20;51.40;;;;;;5105714;27;42760;-76
2023/06/17 11:10:16;;;;;;;;;;;25.20;52.30;;;;;;5105266;27;43537;-78
2023/06/17 11:12:46;;;;;;;;;;;25.20;51.90;;;;;;5105866;27;42893;-76
2023/06/17 11:15:11;;;;;;;;;;;25.20;51.20;;;;;;5104891;27;42882;-80
2023/06/17 11:17:37;;;;;;;;;;;25.20;51.20;;;;;;5100278;27;42992;-76
2023/06/17 11:20:05;;;;;;;;;;;25.20;51.70;;;;;;5104528;27;43060;-77
2023/06/17 11:22:35;;;;;;;;;;;25.20;51.20;;;;;;5101958;27;43024;-79
2023/06/17 11:25:01;;;;;;;;;;;25.20;50.90;;;;;;5102782;27;43594;-82
2023/06/17 11:27:29;;;;;;;;;;;25.10;51.40;;;;;;5103951;27;58535;-82
2023/06/17 11:29:55;;;;;;;;;;;25.20;50.90;;;;;;5105993;27;43411;-75
2023/06/17 11:32:20;;;;;;;;;;;25.30;51.60;;;;;;5086970;27;42962;-77
2023/06/17 11:34:46;;;;;;;;;;;25.20;51.60;;;;;;5105337;27;43599;-76
2023/06/17 11:37:11;;;;;;;;;;;25.20;51.70;;;;;;5105703;27;42925;-76
2023/06/17 11:39:38;;;;;;;;;;;25.20;51.10;;;;;;5087297;27;44442;-77
2023/06/17 11:42:03;;;;;;;;;;;25.20;51.60;;;;;;5102301;27;42984;-76
2023/06/17 11:44:33;;;;;;;;;;;25.20;51.20;;;;;;5095831;27;44050;-76
2023/06/17 11:47:08;;;;;;;;;;;25.20;50.90;;;;;;5097557;27;43081;-79
2023/06/17 11:49:35;;;;;;;;;;;25.10;50.80;;;;;;5083916;27;43141;-76
2023/06/17 11:52:09;;;;;;;;;;;25.30;50.80;;;;;;5105398;27;43073;-79
2023/06/17 11:54:35;;;;;;;;;;;25.30;50.70;;;;;;5101622;27;43068;-78
2023/06/17 11:57:02;;;;;;;;;;;25.30;50.70;;;;;;5103982;27;43086;-77
2023/06/17 11:59:29;;;;;;;;;;;25.30;51.10;;;;;;5105296;27;43408;-76
2023/06/17 12:01:55;;;;;;;;;;;25.30;50.60;;;;;;5099855;27;43063;-77
2023/06/17 12:04:21;;;;;;;;;;;25.20;50.30;;;;;;5098049;27;42940;-76
2023/06/17 12:06:46;;;;;;;;;;;25.30;50.20;;;;;;5103847;27;42986;-76
2023/06/17 12:09:12;;;;;;;;;;;25.30;50.10;;;;;;5101243;27;42950;-80
2023/06/17 12:11:39;;;;;;;;;;;25.30;50.20;;;;;;5102314;27;42918;-76
2023/06/17 12:14:09;;;;;;;;;;;25.20;50.00;;;;;;5103600;27;43772;-76
2023/06/17 12:16:35;;;;;;;;;;;25.30;50.40;;;;;;5101874;27;43226;-76
2023/06/17 12:19:07;;;;;;;;;;;25.30;49.70;;;;;;5103427;27;42929;-77
2023/06/17 12:21:33;;;;;;;;;;;25.30;50.20;;;;;;5103336;27;42901;-76
2023/06/17 12:23:59;;;;;;;;;;;25.20;50.00;;;;;;5103031;27;42984;-76
2023/06/17 12:26:25;;;;;;;;;;;25.30;49.10;;;;;;5103149;27;42963;-79
2023/06/17 12:28:51;;;;;;;;;;;25.20;48.70;;;;;;5102929;27;42974;-79
2023/06/17 12:31:17;;;;;;;;;;;25.30;48.90;;;;;;5102542;27;43105;-76
2023/06/17 12:33:43;;;;;;;;;;;25.30;48.80;;;;;;5102923;27;43493;-76
2023/06/17 12:36:09;;;;;;;;;;;25.30;48.80;;;;;;5103434;27;42743;-76
2023/06/17 12:38:34;;;;;;;;;;;25.30;49.00;;;;;;5102739;27;43423;-76
2023/06/17 12:41:00;;;;;;;;;;;25.20;48.90;;;;;;5103056;27;43254;-77
2023/06/17 12:43:29;;;;;;;;;;;25.30;49.50;;;;;;5100593;27;43520;-80
2023/06/17 12:45:56;;;;;;;;;;;25.20;49.50;;;;;;5103348;27;42975;-75
2023/06/17 12:48:21;;;;;;;;;;;25.30;49.90;;;;;;5102700;27;43548;-75
2023/06/17 12:50:47;;;;;;;;;;;25.20;49.30;;;;;;5103153;27;42845;-86
2023/06/17 12:53:13;;;;;;;;;;;25.30;49.80;;;;;;5106014;27;42889;-76
2023/06/17 12:55:39;;;;;;;;;;;25.30;49.80;;;;;;5089813;27;43024;-81
2023/06/17 12:58:04;;;;;;;;;;;25.30;49.10;;;;;;5107187;27;42977;-78
2023/06/17 13:00:30;;;;;;;;;;;25.30;49.00;;;;;;5104597;27;43027;-76
2023/06/17 13:02:56;;;;;;;;;;;25.30;48.80;;;;;;5105366;27;43252;-84
2023/06/17 13:05:22;;;;;;;;;;;25.30;48.30;;;;;;5086382;27;43095;-79
2023/06/17 13:07:47;;;;;;;;;;;25.30;48.20;;;;;;5103324;27;42987;-76
2023/06/17 13:10:13;;;;;;;;;;;25.30;48.20;;;;;;5106214;27;43166;-76
2023/06/17 13:12:38;;;;;;;;;;;25.30;47.90;;;;;;5100690;27;44030;-76
2023/06/17 13:15:04;;;;;;;;;;;25.30;47.30;;;;;;5106657;27;43094;-77
2023/06/17 13:17:30;;;;;;;;;;;25.30;47.30;;;;;;5105917;27;43696;-76
2023/06/17 13:19:56;;;;;;;;;;;25.30;47.30;;;;;;5105905;27;43138;-78
2023/06/17 13:22:22;;;;;;;;;;;25.30;46.80;;;;;;5105217;27;43642;-75
2023/06/17 13:24:47;;;;;;;;;;;25.50;47.00;;;;;;5102400;27;43090;-75
2023/06/17 13:27:18;;;;;;;;;;;25.20;46.40;;;;;;5105223;27;43631;-76
2023/06/17 13:29:44;;;;;;;;;;;25.20;45.30;;;;;;5103706;27;42988;-75
2023/06/17 13:32:10;;;;;;;;;;;25.20;45.10;;;;;;5105473;27;44328;-80
2023/06/17 13:34:36;;;;;;;;;;;25.20;45.00;;;;;;5102339;27;42958;-86
2023/06/17 13:37:01;;;;;;;;;;;25.20;44.80;;;;;;5105090;27;43911;-81
2023/06/17 13:39:27;;;;;;;;;;;25.20;45.30;;;;;;5104222;27;42868;-77
2023/06/17 13:41:52;;;;;;;;;;;25.20;44.50;;;;;;5105665;27;42915;-77
2023/06/17 13:44:18;;;;;;;;;;;25.10;43.80;;;;;;5105262;27;43034;-74
2023/06/17 13:46:44;;;;;;;;;;;25.10;43.40;;;;;;5101336;27;43504;-76
2023/06/17 13:49:09;;;;;;;;;;;25.10;42.30;;;;;;5103627;27;42959;-77
2023/06/17 13:51:35;;;;;;;;;;;25.10;42.00;;;;;;5105145;27;43008;-75
2023/06/17 13:54:00;;;;;;;;;;;25.10;41.90;;;;;;5104782;27;43027;-75
2023/06/17 13:56:27;;;;;;;;;;;25.10;41.60;;;;;;5105696;27;42983;-79
2023/06/17 13:58:53;;;;;;;;;;;25.10;41.90;;;;;;5104989;27;44095;-75
2023/06/17 14:01:19;;;;;;;;;;;25.00;41.80;;;;;;5084258;27;45315;-74
2023/06/17 14:03:44;;;;;;;;;;;25.00;41.70;;;;;;5101693;27;43212;-75
2023/06/17 14:06:10;;;;;;;;;;;25.00;42.00;;;;;;5086735;27;43732;-75
2023/06/17 14:08:36;;;;;;;;;;;24.90;41.20;;;;;;5083566;27;43442;-76
2023/06/17 14:11:01;;;;;;;;;;;25.00;40.90;;;;;;5105126;27;42942;-74